Nearby METAR Reports

 

KIAG - Niagara Falls, New York, USA
Distance from station: W 12mi, 20km
Updated: 09/23/2017 4:53am
Haze, Clear
Haze, Clear
 Wind from calm
Wind: Calm
Temperature: 61°F , 16°C
Dew Point: 55°F , 13°C
Humidity: 83%
Barometer: 1018.3 hPa
Summary: Haze
Clouds: Clear
Visibility: 6 miles , 10 km
2017/09/23 08:53 KIAG 230853Z AUTO 00000KT 6SM HZ CLR 16/13 A3007 RMK AO2 SLP179 T01560128 55005
KBUF - Buffalo/Cheektow, New York, USA
Distance from station: S 13mi, 21km
Updated: 09/23/2017 4:54am
Clear
Clear
 Wind from S
Wind: S 3 mph , 6 km/h
Temperature: 57°F , 14°C
Dew Point: 55°F , 13°C
Humidity: 94%
Barometer: 1018.6 hPa
Clouds: Clear
Visibility: 10 miles , 16 km
2017/09/23 08:54 KBUF 230854Z 18003KT 10SM CLR 14/13 A3008 RMK AO2 SLP183 T01440128 50000
 
KROC - Rochester, New York, USA
Distance from station: E 51mi, 82km
Updated: 09/23/2017 4:54am
Clear
Clear
 Wind from SSW
Wind: SSW 7 mph , 11 km/h
Temperature: 57°F , 14°C
Dew Point: 55°F , 13°C
Humidity: 94%
Barometer: 1018.6 hPa
Clouds: Clear
Visibility: 10 miles , 16 km
2017/09/23 08:54 KROC 230854Z 21006KT 10SM CLR 14/13 A3008 RMK AO2 SLP188 T01390128 56005
CYSN - St. Catharines A, Ontario, Canada
Distance from station: WNW 25mi, 40km
Updated: 09/22/2017 9:00pm
NOT Current
Clear
Clear
 Wind from S
Wind: S 3 mph , 6 km/h
Temperature: 64°F , 18°C
Dew Point: 59°F , 15°C
Humidity: 83%
Barometer: 1018.3 hPa
Clouds: Clear
Visibility: 15 miles , 24 km
2017/09/23 01:00 CYSN 230100Z 18003KT 15SM SKC 18/15 A3007 RMK LAST STFD OBS/NEXT 23 1100UTC SLP184 DENSITY ALT 600FT
 
KOLE - Olean, New York, USA
Distance from station: SSE 63mi, 102km
Updated: 09/23/2017 4:55am
Clear
Clear
 Wind from WNW
Wind: WNW 5 mph , 7 km/h
Temperature: 54°F , 12°C
Dew Point: 54°F , 12°C
Humidity: 100%
Barometer: 1021.3 hPa
Clouds: Clear
Visibility: 10 miles , 16 km
2017/09/23 08:55 KOLE 230855Z AUTO 30004KT 10SM CLR 12/12 A3016 RMK AO2
KJHW - Jamestown, New York, USA
Distance from station: SSW 74mi, 119km
Updated: 09/23/2017 4:56am
Clear
Clear
 Wind from calm
Wind: Calm
Temperature: 61°F , 16°C
Dew Point: 57°F , 14°C
Humidity: 88%
Barometer: 1020.7 hPa
Clouds: Clear
Visibility: 10 miles , 16 km
2017/09/23 08:56 KJHW 230856Z AUTO 00000KT 10SM CLR 16/14 A3014 RMK AO2 SLP203 T01560139 55000
 
CWWZ - Port Weller (mar, Ontario, Canada
Distance from station: WNW 28mi, 45km
Updated: 09/23/2017 5:00am

 Wind from S
Wind: S 5 mph , 7 km/h
Temperature: 64°F , 18°C
Dew Point: 61°F , 16°C
Humidity: 88%
2017/09/23 09:00 CWWZ 230900Z AUTO 19004KT 18/16 RMK AO1 SLP180 T01830161 55004
CWPC - Port Colborne(Au, Ontario, Canada
Distance from station: WSW 33mi, 53km
Updated: 09/23/2017 5:00am

 Wind from SSW
Wind: SSW 6 mph , 9 km/h
Temperature: 70°F , 21°C
Dew Point: 63°F , 17°C
Humidity: 78%
2017/09/23 09:00 CWPC 230900Z AUTO 20005KT 21/17 RMK AO1 SLP186 T02070168 55004
 
CXVN - Vineland (au8), Ontario, Canada
Distance from station: W 36mi, 58km
Updated: 09/23/2017 5:00am

 Wind from SSE
Wind: SSE 1 mph , 2 km/h
Temperature: 59°F , 15°C
Dew Point: 55°F , 13°C
Humidity: 88%
2017/09/23 09:00 CXVN 230900Z AUTO 16001KT 15/13 RMK AO1 SLP171 T01510131 55006
CYTZ - Toronto Il Vor, Ontario, Canada
Distance from station: NW 50mi, 81km
Updated: 09/23/2017 5:00am
Clear
Clear
 Wind from W
Wind: W 3 mph , 6 km/h
Temperature: 66°F , 19°C
Dew Point: 59°F , 15°C
Humidity: 78%
Barometer: 1017.9 hPa
Clouds: Clear
Visibility: 9 miles , 14 km
2017/09/23 09:00 CYTZ 230900Z AUTO 28003KT 9SM CLR 19/15 A3006 RMK SLP181 DENSITY ALT 600FT
 
CXTO - Toronto City, Ontario, Canada
Distance from station: NW 52mi, 84km
Updated: 09/23/2017 5:00am

 
Temperature: 66°F , 19°C
Dew Point: 52°F , 11°C
Humidity: 60%
2017/09/23 09:00 CXTO 230900Z AUTO 19/11 RMK AO1 SLP181 T01890111 55004
KDKK - Dunkirk, New York, USA
Distance from station: SW 52mi, 84km
Updated: 09/23/2017 4:53am
Clear
Clear
 Wind from calm
Wind: Calm
Temperature: 55°F , 13°C
Dew Point: 55°F , 13°C
Humidity: 100%
Barometer: 1018.6 hPa
Clouds: Clear
Visibility: 10 miles , 16 km
2017/09/23 08:53 KDKK 230853Z AUTO 00000KT 10SM CLR 13/13 A3008 RMK AO2 SLP185 T01330128 50001 $
 
CYOO - Oshawa, Ontario, Canada
Distance from station: N 56mi, 90km
Updated: 09/23/2017 5:00am
Clear
Clear
 Wind from N
Wind: N 5 mph , 7 km/h
Temperature: 59°F , 15°C
Dew Point: 54°F , 12°C
Humidity: 82%
Barometer: 1018.3 hPa
Clouds: Clear
Visibility: 9 miles , 14 km
2017/09/23 09:00 CYOO 230900Z AUTO 35004KT 9SM CLR 15/12 A3007 RMK SLP183
CWWB - Burlington Piers, Ontario, Canada
Distance from station: WNW 56mi, 91km
Updated: 09/23/2017 5:00am

 Wind from SW
Wind: SW 7 mph , 11 km/h
Temperature: 68°F , 20°C
Dew Point: 57°F , 14°C
Humidity: 69%
2017/09/23 09:00 CWWB 230900Z AUTO 22006KT 20/14 RMK AO1 SLP181 T01950135 55006
 
CYYZ - Toronto/Pearson, Ontario, Canada
Distance from station: NW 60mi, 96km
Updated: 09/23/2017 5:00am
Clear
Clear
 Wind from varies
Wind: varies 2 mph , 4 km/h
Temperature: 64°F , 18°C
Dew Point: 52°F , 11°C
Humidity: 64%
Barometer: 1018.3 hPa
Clouds: Clear
Visibility: 15 miles , 24 km
2017/09/23 09:00 CYYZ 230900Z VRB02KT 15SM SKC 18/11 A3007 RMK SLP182 DENSITY ALT 900FT
CYKZ - Toronto Buttonvi, Ontario, Canada
Distance from station: NW 62mi, 99km
Updated: 09/23/2017 5:00am
Few Clouds
Few Clouds
 Wind from NNW
Wind: NNW 2 mph , 4 km/h
Temperature: 61°F , 16°C
Dew Point: 55°F , 13°C
Humidity: 83%
Barometer: 1018.6 hPa
Clouds: Few Clouds
Visibility: 15 miles , 24 km
Cloud details: Few Clouds 9500 ft
2017/09/23 09:00 CYKZ 230900Z 34002KT 15SM FEW095 16/13 A3008 RMK AC1 AC TR SLP184 DENSITY ALT 800FT
 
CXHM - Hamilton Rbg Cs, Ontario, Canada
Distance from station: W 62mi, 100km
Updated: 09/23/2017 5:00am

 Wind from W
Wind: W 1 mph , 2 km/h
Temperature: 57°F , 14°C
Dew Point: 57°F , 14°C
Humidity: 100%
2017/09/23 09:00 CXHM 230900Z AUTO 27001KT 14/14 RMK AO1 SLP174 T01410135 55007
KDSV - Dansville, New York, USA
Distance from station: SE 62mi, 100km
Updated: 09/23/2017 4:54am
Clear
Clear
 Wind from calm
Wind: Calm
Temperature: 54°F , 12°C
Dew Point: 52°F , 11°C
Humidity: 94%
Barometer: 1020.3 hPa
Clouds: Clear
Visibility: 10 miles , 16 km
2017/09/23 08:54 KDSV 230854Z AUTO 00000KT 10SM CLR 12/11 A3013 RMK AO2 SLP208 T01170106 55001
 
CYHM - Hamilton Airport, Ontario, Canada
Distance from station: W 63mi, 101km
Updated: 09/23/2017 5:00am
Clear
Clear
 Wind from W
Wind: W 6 mph , 9 km/h
Temperature: 57°F , 14°C
Dew Point: 55°F , 13°C
Humidity: 94%
Barometer: 1018.6 hPa
Clouds: Clear
Visibility: 15 miles , 24 km
2017/09/23 09:00 CYHM 230900Z 27005KT 15SM SKC 14/13 A3008 RMK SLP187
CWNC - Cobourg (mars), Ontario, Canada
Distance from station: NNE 63mi, 102km
Updated: 09/23/2017 5:00am

 Wind from NNW
Wind: NNW 5 mph , 7 km/h
Temperature: 61°F , 16°C
Dew Point: 52°F , 11°C
Humidity: 72%
2017/09/23 09:00 CWNC 230900Z AUTO 34004KT 16/11 RMK AO1 SLP174 T01620107 55002